sensor_id;sensor_type;location;lat;lon;timestamp;pressure;altitude;pressure_sealevel;temperature;humidity
75717;BME280;64333;50.138;14.332;2022-12-17T00:01:23;98206.34;;;-2.30;82.21
75717;BME280;64333;50.138;14.332;2022-12-17T00:04:06;98227.50;;;-2.22;81.78
75717;BME280;64333;50.138;14.332;2022-12-17T00:06:50;98224.13;;;-2.18;82.04
75717;BME280;64333;50.138;14.332;2022-12-17T00:09:34;98220.75;;;-2.25;80.95
75717;BME280;64333;50.138;14.332;2022-12-17T00:12:18;98227.50;;;-2.19;82.45
75717;BME280;64333;50.138;14.332;2022-12-17T00:15:04;98235.09;;;-2.18;82.92
75717;BME280;64333;50.138;14.332;2022-12-17T00:17:48;98229.19;;;-2.21;82.46
75717;BME280;64333;50.138;14.332;2022-12-17T00:20:32;98226.59;;;-2.30;83.93
75717;BME280;64333;50.138;14.332;2022-12-17T00:23:16;98234.22;;;-2.27;84.40
75717;BME280;64333;50.138;14.332;2022-12-17T00:26:00;98229.97;;;-2.31;83.13
75717;BME280;64333;50.138;14.332;2022-12-17T00:28:44;98227.44;;;-2.31;83.85
75717;BME280;64333;50.138;14.332;2022-12-17T00:31:29;98248.56;;;-2.25;83.34
75717;BME280;64333;50.138;14.332;2022-12-17T00:34:12;98239.25;;;-2.27;82.49
75717;BME280;64333;50.138;14.332;2022-12-17T00:36:56;98243.44;;;-2.29;83.82
75717;BME280;64333;50.138;14.332;2022-12-17T00:39:40;98251.03;;;-2.29;82.56
75717;BME280;64333;50.138;14.332;2022-12-17T00:42:24;98250.22;;;-2.25;83.19
75717;BME280;64333;50.138;14.332;2022-12-17T00:45:09;98249.38;;;-2.24;82.33
75717;BME280;64333;50.138;14.332;2022-12-17T00:47:53;98255.31;;;-2.21;80.93
75717;BME280;64333;50.138;14.332;2022-12-17T00:50:37;98245.16;;;-2.25;80.86
75717;BME280;64333;50.138;14.332;2022-12-17T00:53:21;98262.09;;;-2.15;80.44
75717;BME280;64333;50.138;14.332;2022-12-17T00:56:05;98267.13;;;-2.14;79.99
75717;BME280;64333;50.138;14.332;2022-12-17T00:58:49;98275.59;;;-2.09;80.07
75717;BME280;64333;50.138;14.332;2022-12-17T01:01:33;98274.72;;;-2.14;79.89
75717;BME280;64333;50.138;14.332;2022-12-17T01:04:17;98284.00;;;-2.16;79.11
75717;BME280;64333;50.138;14.332;2022-12-17T01:07:01;98286.56;;;-2.11;80.44
75717;BME280;64333;50.138;14.332;2022-12-17T01:09:45;98281.47;;;-2.16;79.52
75717;BME280;64333;50.138;14.332;2022-12-17T01:12:29;98290.75;;;-2.18;79.46
75717;BME280;64333;50.138;14.332;2022-12-17T01:15:13;98293.25;;;-2.19;80.40
75717;BME280;64333;50.138;14.332;2022-12-17T01:17:57;98299.13;;;-2.22;79.55
75717;BME280;64333;50.138;14.332;2022-12-17T01:20:41;98305.06;;;-2.18;79.95
75717;BME280;64333;50.138;14.332;2022-12-17T01:23:25;98304.22;;;-2.17;79.77
75717;BME280;64333;50.138;14.332;2022-12-17T01:26:09;98312.69;;;-2.15;79.93
75717;BME280;64333;50.138;14.332;2022-12-17T01:28:56;98312.69;;;-2.09;80.14
75717;BME280;64333;50.138;14.332;2022-12-17T01:31:39;98315.25;;;-2.06;80.23
75717;BME280;64333;50.138;14.332;2022-12-17T01:34:23;98311.88;;;-2.05;80.16
75717;BME280;64333;50.138;14.332;2022-12-17T01:37:07;98303.41;;;-2.13;80.79
75717;BME280;64333;50.138;14.332;2022-12-17T01:39:51;98316.09;;;-2.07;79.34
75717;BME280;64333;50.138;14.332;2022-12-17T01:42:40;98324.53;;;-2.08;79.50
75717;BME280;64333;50.138;14.332;2022-12-17T01:45:25;98323.69;;;-2.07;78.87
75717;BME280;64333;50.138;14.332;2022-12-17T01:48:14;98325.38;;;-2.08;79.34
75717;BME280;64333;50.138;14.332;2022-12-17T01:51:00;98332.16;;;-2.02;79.74
75717;BME280;64333;50.138;14.332;2022-12-17T01:53:51;98328.75;;;-2.04;78.81
75717;BME280;64333;50.138;14.332;2022-12-17T01:56:39;98338.88;;;-2.07;79.55
75717;BME280;64333;50.138;14.332;2022-12-17T01:59:37;98338.03;;;-2.05;79.18
75717;BME280;64333;50.138;14.332;2022-12-17T02:02:24;98343.94;;;-2.04;79.56
75717;BME280;64333;50.138;14.332;2022-12-17T02:05:08;98342.25;;;-2.04;79.52
75717;BME280;64333;50.138;14.332;2022-12-17T02:11:10;98347.28;;;-2.07;80.17
75717;BME280;64333;50.138;14.332;2022-12-17T02:16:52;98356.56;;;-2.07;77.86
75717;BME280;64333;50.138;14.332;2022-12-17T02:23:16;98369.19;;;-2.13;80.01
75717;BME280;64333;50.138;14.332;2022-12-17T02:26:13;98359.91;;;-2.11;79.07
75717;BME280;64333;50.138;14.332;2022-12-17T02:29:01;98370.06;;;-2.05;78.93
75717;BME280;64333;50.138;14.332;2022-12-17T02:31:47;98359.13;;;-2.06;79.50
75717;BME280;64333;50.138;14.332;2022-12-17T02:34:44;98360.75;;;-2.09;79.49
75717;BME280;64333;50.138;14.332;2022-12-17T02:37:27;98370.06;;;-2.07;78.95
75717;BME280;64333;50.138;14.332;2022-12-17T02:40:11;98365.84;;;-2.06;79.56
75717;BME280;64333;50.138;14.332;2022-12-17T02:42:56;98368.34;;;-2.12;80.72
75717;BME280;64333;50.138;14.332;2022-12-17T02:45:41;98374.28;;;-2.07;80.22
75717;BME280;64333;50.138;14.332;2022-12-17T02:48:25;98371.72;;;-2.12;80.21
75717;BME280;64333;50.138;14.332;2022-12-17T02:51:10;98380.13;;;-2.14;80.24
75717;BME280;64333;50.138;14.332;2022-12-17T02:53:54;98374.25;;;-2.09;81.92
75717;BME280;64333;50.138;14.332;2022-12-17T02:56:38;98381.00;;;-2.08;81.19
75717;BME280;64333;50.138;14.332;2022-12-17T02:59:22;98386.91;;;-2.10;81.60
75717;BME280;64333;50.138;14.332;2022-12-17T03:02:06;98379.31;;;-2.09;82.40
75717;BME280;64333;50.138;14.332;2022-12-17T03:04:50;98392.84;;;-2.08;82.72
75717;BME280;64333;50.138;14.332;2022-12-17T03:07:34;98391.97;;;-2.10;82.75
75717;BME280;64333;50.138;14.332;2022-12-17T03:10:18;98382.66;;;-2.14;84.00
75717;BME280;64333;50.138;14.332;2022-12-17T03:13:01;98387.72;;;-2.11;82.84
75717;BME280;64333;50.138;14.332;2022-12-17T03:15:45;98396.19;;;-2.11;83.71
75717;BME280;64333;50.138;14.332;2022-12-17T03:18:43;98390.25;;;-2.13;83.67
75717;BME280;64333;50.138;14.332;2022-12-17T03:21:27;98400.38;;;-2.11;83.60
75717;BME280;64333;50.138;14.332;2022-12-17T03:24:11;98393.63;;;-2.15;83.52
75717;BME280;64333;50.138;14.332;2022-12-17T03:26:55;98394.47;;;-2.10;82.66
75717;BME280;64333;50.138;14.332;2022-12-17T03:29:38;98406.34;;;-2.05;83.24
75717;BME280;64333;50.138;14.332;2022-12-17T03:32:22;98403.81;;;-2.06;83.70
75717;BME280;64333;50.138;14.332;2022-12-17T03:35:06;98416.47;;;-2.05;84.62
75717;BME280;64333;50.138;14.332;2022-12-17T03:37:50;98420.66;;;-2.08;85.42
75717;BME280;64333;50.138;14.332;2022-12-17T03:40:34;98426.56;;;-2.06;85.53
75717;BME280;64333;50.138;14.332;2022-12-17T03:43:18;98429.94;;;-2.04;84.82
75717;BME280;64333;50.138;14.332;2022-12-17T03:46:02;98432.53;;;-2.01;85.30
75717;BME280;64333;50.138;14.332;2022-12-17T03:48:46;98439.28;;;-1.99;85.87
75717;BME280;64333;50.138;14.332;2022-12-17T03:51:30;98437.56;;;-2.03;85.72
75717;BME280;64333;50.138;14.332;2022-12-17T03:54:14;98432.47;;;-2.07;86.14
75717;BME280;64333;50.138;14.332;2022-12-17T03:56:58;98440.06;;;-2.07;86.47
75717;BME280;64333;50.138;14.332;2022-12-17T03:59:42;98440.91;;;-2.08;86.51
75717;BME280;64333;50.138;14.332;2022-12-17T04:02:26;98443.44;;;-2.08;86.77
75717;BME280;64333;50.138;14.332;2022-12-17T04:05:10;98445.06;;;-2.10;87.29
75717;BME280;64333;50.138;14.332;2022-12-17T04:07:53;98445.06;;;-2.10;88.73
75717;BME280;64333;50.138;14.332;2022-12-17T04:10:37;98430.69;;;-2.19;88.37
75717;BME280;64333;50.138;14.332;2022-12-17T04:13:21;98453.56;;;-2.08;89.02
75717;BME280;64333;50.138;14.332;2022-12-17T04:16:06;98456.88;;;-2.09;88.70
75717;BME280;64333;50.138;14.332;2022-12-17T04:18:49;98464.47;;;-2.12;87.34
75717;BME280;64333;50.138;14.332;2022-12-17T04:21:33;98456.06;;;-2.07;88.80
75717;BME280;64333;50.138;14.332;2022-12-17T04:24:17;98466.13;;;-2.13;87.55
75717;BME280;64333;50.138;14.332;2022-12-17T04:27:01;98477.97;;;-2.10;88.83
75717;BME280;64333;50.138;14.332;2022-12-17T04:29:45;98477.16;;;-2.06;88.45
75717;BME280;64333;50.138;14.332;2022-12-17T04:32:29;98496.59;;;-2.04;87.32
75717;BME280;64333;50.138;14.332;2022-12-17T04:35:13;98495.72;;;-2.07;87.02
75717;BME280;64333;50.138;14.332;2022-12-17T04:37:57;98496.50;;;-2.11;87.23
75717;BME280;64333;50.138;14.332;2022-12-17T04:40:41;98506.66;;;-2.07;87.82
75717;BME280;64333;50.138;14.332;2022-12-17T04:43:25;98504.16;;;-2.08;86.92
75717;BME280;64333;50.138;14.332;2022-12-17T04:46:09;98511.81;;;-1.99;87.09
75717;BME280;64333;50.138;14.332;2022-12-17T04:48:53;98504.19;;;-2.04;88.23
75717;BME280;64333;50.138;14.332;2022-12-17T04:51:47;98512.59;;;-2.03;87.22
75717;BME280;64333;50.138;14.332;2022-12-17T04:54:31;98519.41;;;-1.99;86.78
75717;BME280;64333;50.138;14.332;2022-12-17T04:57:15;98519.38;;;-2.01;87.25
75717;BME280;64333;50.138;14.332;2022-12-17T04:59:59;98527.84;;;-1.97;86.67
75717;BME280;64333;50.138;14.332;2022-12-17T05:02:43;98527.03;;;-1.95;86.82
75717;BME280;64333;50.138;14.332;2022-12-17T05:05:27;98534.59;;;-1.96;86.79
75717;BME280;64333;50.138;14.332;2022-12-17T05:08:11;98528.72;;;-1.92;87.63
75717;BME280;64333;50.138;14.332;2022-12-17T05:11:00;98537.13;;;-1.96;87.00
75717;BME280;64333;50.138;14.332;2022-12-17T05:13:44;98542.25;;;-1.92;87.71
75717;BME280;64333;50.138;14.332;2022-12-17T05:16:29;98547.25;;;-1.95;88.04
75717;BME280;64333;50.138;14.332;2022-12-17T05:19:13;98558.25;;;-1.93;87.17
75717;BME280;64333;50.138;14.332;2022-12-17T05:21:57;98558.31;;;-1.88;87.92
75717;BME280;64333;50.138;14.332;2022-12-17T05:24:41;98559.13;;;-1.88;87.77
75717;BME280;64333;50.138;14.332;2022-12-17T05:27:25;98570.13;;;-1.84;87.01
75717;BME280;64333;50.138;14.332;2022-12-17T05:30:09;98563.44;;;-1.82;87.66
75717;BME280;64333;50.138;14.332;2022-12-17T05:33:00;98566.75;;;-1.86;88.16
75717;BME280;64333;50.138;14.332;2022-12-17T05:35:45;98575.19;;;-1.87;87.22
75717;BME280;64333;50.138;14.332;2022-12-17T05:38:29;98575.19;;;-1.87;87.97
75717;BME280;64333;50.138;14.332;2022-12-17T05:41:13;98580.19;;;-1.90;87.92
75717;BME280;64333;50.138;14.332;2022-12-17T05:43:57;98587.78;;;-1.93;87.92
75717;BME280;64333;50.138;14.332;2022-12-17T05:46:40;98589.44;;;-1.94;87.35
75717;BME280;64333;50.138;14.332;2022-12-17T05:49:24;98586.06;;;-1.93;87.42
75717;BME280;64333;50.138;14.332;2022-12-17T05:52:08;98595.38;;;-1.93;87.08
75717;BME280;64333;50.138;14.332;2022-12-17T05:54:52;98599.59;;;-1.92;86.89
75717;BME280;64333;50.138;14.332;2022-12-17T05:57:36;98598.75;;;-1.91;87.63
75717;BME280;64333;50.138;14.332;2022-12-17T06:00:20;98601.25;;;-1.93;86.77
75717;BME280;64333;50.138;14.332;2022-12-17T06:03:04;98601.28;;;-1.91;87.20
75717;BME280;64333;50.138;14.332;2022-12-17T06:05:53;98619.84;;;-1.91;87.26
75717;BME280;64333;50.138;14.332;2022-12-17T06:08:37;98611.44;;;-1.88;87.72
75717;BME280;64333;50.138;14.332;2022-12-17T06:11:21;98614.75;;;-1.94;86.45
75717;BME280;64333;50.138;14.332;2022-12-17T06:14:05;98618.97;;;-1.94;86.60
75717;BME280;64333;50.138;14.332;2022-12-17T06:16:49;98624.06;;;-1.91;87.01
75717;BME280;64333;50.138;14.332;2022-12-17T06:19:33;98631.66;;;-1.91;86.10
75717;BME280;64333;50.138;14.332;2022-12-17T06:22:17;98635.91;;;-1.89;86.69
75717;BME280;64333;50.138;14.332;2022-12-17T06:25:01;98640.97;;;-1.87;86.72
75717;BME280;64333;50.138;14.332;2022-12-17T06:27:45;98643.50;;;-1.87;87.64
75717;BME280;64333;50.138;14.332;2022-12-17T06:30:29;98648.59;;;-1.86;87.01
75717;BME280;64333;50.138;14.332;2022-12-17T06:33:13;98638.41;;;-1.90;86.84
75717;BME280;64333;50.138;14.332;2022-12-17T06:35:57;98649.41;;;-1.88;87.09
75717;BME280;64333;50.138;14.332;2022-12-17T06:38:42;98642.59;;;-1.92;87.35
75717;BME280;64333;50.138;14.332;2022-12-17T06:41:26;98642.66;;;-1.89;88.09
75717;BME280;64333;50.138;14.332;2022-12-17T06:44:10;98653.59;;;-1.90;87.64
75717;BME280;64333;50.138;14.332;2022-12-17T06:46:54;98657.03;;;-1.85;88.04
75717;BME280;64333;50.138;14.332;2022-12-17T06:49:38;98651.13;;;-1.84;89.26
75717;BME280;64333;50.138;14.332;2022-12-17T06:52:22;98660.53;;;-1.74;87.88
75717;BME280;64333;50.138;14.332;2022-12-17T06:55:06;98652.06;;;-1.78;86.97
75717;BME280;64333;50.138;14.332;2022-12-17T06:58:00;98660.47;;;-1.79;86.95
75717;BME280;64333;50.138;14.332;2022-12-17T07:00:45;98667.22;;;-1.76;87.70
75717;BME280;64333;50.138;14.332;2022-12-17T07:03:29;98659.63;;;-1.76;87.31
75717;BME280;64333;50.138;14.332;2022-12-17T07:06:13;98681.69;;;-1.66;86.66
75717;BME280;64333;50.138;14.332;2022-12-17T07:08:57;98677.47;;;-1.67;87.07
75717;BME280;64333;50.138;14.332;2022-12-17T07:11:41;98690.97;;;-1.68;87.31
75717;BME280;64333;50.138;14.332;2022-12-17T07:14:25;98707.03;;;-1.65;86.54
75717;BME280;64333;50.138;14.332;2022-12-17T07:17:09;98704.53;;;-1.62;86.93
75717;BME280;64333;50.138;14.332;2022-12-17T07:19:53;98704.53;;;-1.62;86.79
75717;BME280;64333;50.138;14.332;2022-12-17T07:22:37;98707.97;;;-1.57;86.85
75717;BME280;64333;50.138;14.332;2022-12-17T07:25:21;98700.38;;;-1.55;86.29
75717;BME280;64333;50.138;14.332;2022-12-17T07:28:09;98693.59;;;-1.58;86.72
75717;BME280;64333;50.138;14.332;2022-12-17T07:30:55;98713.13;;;-1.49;86.25
75717;BME280;64333;50.138;14.332;2022-12-17T07:33:38;98713.91;;;-1.50;85.52
75717;BME280;64333;50.138;14.332;2022-12-17T07:36:23;98724.13;;;-1.44;86.01
75717;BME280;64333;50.138;14.332;2022-12-17T07:39:07;98725.00;;;-1.41;86.20
75717;BME280;64333;50.138;14.332;2022-12-17T07:41:55;98736.88;;;-1.34;85.29
75717;BME280;64333;50.138;14.332;2022-12-17T07:44:39;98730.97;;;-1.34;86.01
75717;BME280;64333;50.138;14.332;2022-12-17T07:47:23;98742.00;;;-1.28;85.80
75717;BME280;64333;50.138;14.332;2022-12-17T07:50:07;98730.16;;;-1.32;85.53
75717;BME280;64333;50.138;14.332;2022-12-17T07:53:03;98749.69;;;-1.20;85.18
75717;BME280;64333;50.138;14.332;2022-12-17T07:55:48;98748.88;;;-1.18;84.52
75717;BME280;64333;50.138;14.332;2022-12-17T07:58:32;98754.03;;;-1.09;84.71
75717;BME280;64333;50.138;14.332;2022-12-17T08:01:16;98747.31;;;-1.04;84.61
75717;BME280;64333;50.138;14.332;2022-12-17T08:04:00;98753.28;;;-0.99;84.50
75717;BME280;64333;50.138;14.332;2022-12-17T08:06:43;98750.91;;;-0.79;86.19
75717;BME280;64333;50.138;14.332;2022-12-17T08:09:28;98771.28;;;-0.69;84.35
75717;BME280;64333;50.138;14.332;2022-12-17T08:12:11;98772.97;;;-0.69;82.52
75717;BME280;64333;50.138;14.332;2022-12-17T08:14:56;98765.44;;;-0.57;83.54
75717;BME280;64333;50.138;14.332;2022-12-17T08:17:39;98772.34;;;-0.38;84.07
75717;BME280;64333;50.138;14.332;2022-12-17T08:20:24;98783.44;;;-0.26;84.70
75717;BME280;64333;50.138;14.332;2022-12-17T08:23:07;98787.66;;;-0.26;81.84
75717;BME280;64333;50.138;14.332;2022-12-17T08:25:51;98778.44;;;-0.08;82.94
75717;BME280;64333;50.138;14.332;2022-12-17T08:28:35;98783.59;;;0.01;82.64
75717;BME280;64333;50.138;14.332;2022-12-17T08:31:19;98792.94;;;0.11;81.10
75717;BME280;64333;50.138;14.332;2022-12-17T08:34:03;98799.75;;;0.15;80.03
75717;BME280;64333;50.138;14.332;2022-12-17T08:36:47;98807.34;;;0.16;79.36
75717;BME280;64333;50.138;14.332;2022-12-17T08:39:31;98812.47;;;0.22;79.33
75717;BME280;64333;50.138;14.332;2022-12-17T08:42:15;98820.97;;;0.29;78.85
75717;BME280;64333;50.138;14.332;2022-12-17T08:44:59;98818.47;;;0.30;78.95
75717;BME280;64333;50.138;14.332;2022-12-17T08:47:43;98816.75;;;0.32;78.80
75717;BME280;64333;50.138;14.332;2022-12-17T08:50:28;98822.66;;;0.25;78.46
75717;BME280;64333;50.138;14.332;2022-12-17T08:53:12;98827.78;;;0.39;79.08
75717;BME280;64333;50.138;14.332;2022-12-17T08:55:56;98811.66;;;0.26;79.40
75717;BME280;64333;50.138;14.332;2022-12-17T08:58:40;98816.81;;;0.44;80.05
75717;BME280;64333;50.138;14.332;2022-12-17T09:01:24;98828.66;;;0.44;79.79
75717;BME280;64333;50.138;14.332;2022-12-17T09:04:08;98824.50;;;0.59;80.44
75717;BME280;64333;50.138;14.332;2022-12-17T09:06:52;98835.56;;;0.70;79.49
75717;BME280;64333;50.138;14.332;2022-12-17T09:09:36;98835.50;;;0.54;78.00
75717;BME280;64333;50.138;14.332;2022-12-17T09:12:20;98834.72;;;0.76;78.16
75717;BME280;64333;50.138;14.332;2022-12-17T09:15:04;98834.75;;;0.77;78.11
75717;BME280;64333;50.138;14.332;2022-12-17T09:17:50;98840.66;;;0.82;77.94
75717;BME280;64333;50.138;14.332;2022-12-17T09:20:34;98839.84;;;0.82;77.46
75717;BME280;64333;50.138;14.332;2022-12-17T09:23:18;98842.41;;;0.95;76.66
75717;BME280;64333;50.138;14.332;2022-12-17T09:26:02;98840.72;;;0.91;76.94
75717;BME280;64333;50.138;14.332;2022-12-17T09:28:46;98852.63;;;1.00;76.66
75717;BME280;64333;50.138;14.332;2022-12-17T09:31:31;98852.69;;;1.55;77.65
75717;BME280;64333;50.138;14.332;2022-12-17T09:34:15;98839.13;;;1.83;77.01
75717;BME280;64333;50.138;14.332;2022-12-17T09:36:59;98833.84;;;2.58;74.90
75717;BME280;64333;50.138;14.332;2022-12-17T09:39:43;98842.13;;;3.02;71.31
75717;BME280;64333;50.138;14.332;2022-12-17T09:42:38;98844.72;;;3.01;70.00
75717;BME280;64333;50.138;14.332;2022-12-17T09:45:33;98852.53;;;2.63;70.89
75717;BME280;64333;50.138;14.332;2022-12-17T09:48:23;98850.09;;;2.29;71.89
75717;BME280;64333;50.138;14.332;2022-12-17T09:51:21;98850.13;;;2.05;73.17
75717;BME280;64333;50.138;14.332;2022-12-17T09:54:15;98851.69;;;2.60;71.89
75717;BME280;64333;50.138;14.332;2022-12-17T09:57:00;98867.16;;;3.80;68.28
75717;BME280;64333;50.138;14.332;2022-12-17T09:59:45;98869.06;;;4.49;65.52
75717;BME280;64333;50.138;14.332;2022-12-17T10:02:30;98869.31;;;5.02;60.33
75717;BME280;64333;50.138;14.332;2022-12-17T10:05:19;98880.34;;;5.66;60.39
75717;BME280;64333;50.138;14.332;2022-12-17T10:08:05;98880.53;;;6.08;57.46
75717;BME280;64333;50.138;14.332;2022-12-17T10:10:50;98865.81;;;6.66;54.65
75717;BME280;64333;50.138;14.332;2022-12-17T10:13:34;98877.84;;;7.45;52.82
75717;BME280;64333;50.138;14.332;2022-12-17T10:16:33;98885.44;;;7.87;50.00
75717;BME280;64333;50.138;14.332;2022-12-17T10:19:29;98888.66;;;8.32;49.25
75717;BME280;64333;50.138;14.332;2022-12-17T10:22:17;98885.81;;;8.42;48.63
75717;BME280;64333;50.138;14.332;2022-12-17T10:25:18;98886.69;;;8.73;47.58
75717;BME280;64333;50.138;14.332;2022-12-17T10:28:14;98891.59;;;8.50;46.73
75717;BME280;64333;50.138;14.332;2022-12-17T10:31:00;98899.59;;;8.72;46.20
75717;BME280;64333;50.138;14.332;2022-12-17T10:33:44;98897.06;;;8.38;46.17
75717;BME280;64333;50.138;14.332;2022-12-17T10:36:29;98897.63;;;7.79;47.22
75717;BME280;64333;50.138;14.332;2022-12-17T10:39:24;98899.56;;;7.32;47.90
75717;BME280;64333;50.138;14.332;2022-12-17T10:42:28;98903.91;;;7.28;48.98
75717;BME280;64333;50.138;14.332;2022-12-17T10:45:23;98905.13;;;6.67;50.30
75717;BME280;64333;50.138;14.332;2022-12-17T10:51:04;98906.50;;;5.89;53.80
75717;BME280;64333;50.138;14.332;2022-12-17T10:53:50;98907.78;;;4.96;56.21
75717;BME280;64333;50.138;14.332;2022-12-17T10:56:35;98907.84;;;4.87;56.00
75717;BME280;64333;50.138;14.332;2022-12-17T10:59:36;98917.78;;;4.34;57.19
75717;BME280;64333;50.138;14.332;2022-12-17T11:02:25;98917.84;;;4.31;56.67
75717;BME280;64333;50.138;14.332;2022-12-17T11:05:14;98906.97;;;4.91;56.65
75717;BME280;64333;50.138;14.332;2022-12-17T11:08:02;98927.66;;;6.03;52.45
75717;BME280;64333;50.138;14.332;2022-12-17T11:10:46;98939.38;;;6.66;50.80
75717;BME280;64333;50.138;14.332;2022-12-17T11:13:40;98940.34;;;7.47;47.81
75717;BME280;64333;50.138;14.332;2022-12-17T11:16:28;98936.03;;;7.49;47.83
75717;BME280;64333;50.138;14.332;2022-12-17T11:19:28;98937.03;;;7.42;47.55
75717;BME280;64333;50.138;14.332;2022-12-17T11:25:33;98947.25;;;5.45;51.73
75717;BME280;64333;50.138;14.332;2022-12-17T11:28:27;98948.06;;;5.48;52.84
75717;BME280;64333;50.138;14.332;2022-12-17T11:40:02;98947.56;;;8.06;45.91
75717;BME280;64333;50.138;14.332;2022-12-17T11:48:57;98953.19;;;8.58;44.21
75717;BME280;64333;50.138;14.332;2022-12-17T11:54:56;98956.88;;;7.75;44.92
75717;BME280;64333;50.138;14.332;2022-12-17T12:04:09;98960.25;;;5.95;49.87
75717;BME280;64333;50.138;14.332;2022-12-17T12:10:24;98959.97;;;4.80;53.69
75717;BME280;64333;50.138;14.332;2022-12-17T12:16:15;98960.34;;;4.41;55.08
75717;BME280;64333;50.138;14.332;2022-12-17T12:22:33;98976.28;;;3.54;57.51
75717;BME280;64333;50.138;14.332;2022-12-17T12:26:03;98942.22;;;3.58;75.41
75717;BME280;64333;50.138;14.332;2022-12-17T12:29:14;98958.31;;;3.71;59.34
75717;BME280;64333;50.138;14.332;2022-12-17T12:34:53;98976.28;;;3.56;56.62
75717;BME280;64333;50.138;14.332;2022-12-17T12:37:37;98975.53;;;3.36;57.54
75717;BME280;64333;50.138;14.332;2022-12-17T12:40:32;98984.16;;;3.08;58.62
75717;BME280;64333;50.138;14.332;2022-12-17T12:43:24;98974.84;;;2.93;58.98
75717;BME280;64333;50.138;14.332;2022-12-17T12:46:18;98988.50;;;2.62;59.99
75717;BME280;64333;50.138;14.332;2022-12-17T12:49:26;98985.09;;;2.78;60.04
75717;BME280;64333;50.138;14.332;2022-12-17T12:52:17;98986.78;;;2.72;60.54
75717;BME280;64333;50.138;14.332;2022-12-17T12:55:03;98998.72;;;2.38;61.29
75717;BME280;64333;50.138;14.332;2022-12-17T12:58:01;98980.03;;;2.47;61.50
75717;BME280;64333;50.138;14.332;2022-12-17T13:03:49;98981.75;;;2.43;62.20
75717;BME280;64333;50.138;14.332;2022-12-17T13:11:44;98988.53;;;2.08;63.13
75717;BME280;64333;50.138;14.332;2022-12-17T13:17:25;98998.72;;;1.90;63.61
75717;BME280;64333;50.138;14.332;2022-12-17T13:24:46;98991.91;;;1.77;63.62
75717;BME280;64333;50.138;14.332;2022-12-17T13:35:45;99003.66;;;1.36;65.96
75717;BME280;64333;50.138;14.332;2022-12-17T13:41:08;99019.69;;;1.17;66.18
75717;BME280;64333;50.138;14.332;2022-12-17T13:43:44;99018.84;;;1.21;65.78
75717;BME280;64333;50.138;14.332;2022-12-17T13:48:42;99013.50;;;0.78;66.85
75717;BME280;64333;50.138;14.332;2022-12-17T13:51:17;99020.72;;;0.21;69.59
75717;BME280;64333;50.138;14.332;2022-12-17T13:54:01;99026.41;;;-0.06;70.13
75717;BME280;64333;50.138;14.332;2022-12-17T13:56:30;99028.69;;;-0.31;71.10
75717;BME280;64333;50.138;14.332;2022-12-17T13:58:58;99031.25;;;-0.26;71.06
75717;BME280;64333;50.138;14.332;2022-12-17T14:01:24;99042.97;;;-0.37;71.55
75717;BME280;64333;50.138;14.332;2022-12-17T14:04:00;99041.94;;;-0.54;71.94
75717;BME280;64333;50.138;14.332;2022-12-17T14:06:35;99043.78;;;-0.43;71.76
75717;BME280;64333;50.138;14.332;2022-12-17T14:09:02;99039.47;;;-0.47;72.27
75717;BME280;64333;50.138;14.332;2022-12-17T14:11:29;99044.56;;;-0.48;72.76
75717;BME280;64333;50.138;14.332;2022-12-17T14:14:33;99055.31;;;-0.67;73.04
75717;BME280;64333;50.138;14.332;2022-12-17T14:17:00;99058.56;;;-0.76;72.78
75717;BME280;64333;50.138;14.332;2022-12-17T14:19:26;99059.13;;;-0.96;73.54
75717;BME280;64333;50.138;14.332;2022-12-17T14:21:53;99053.88;;;-1.11;73.97
75717;BME280;64333;50.138;14.332;2022-12-17T14:24:21;99069.09;;;-1.10;74.16
75717;BME280;64333;50.138;14.332;2022-12-17T14:26:53;99065.53;;;-1.22;74.54
75717;BME280;64333;50.138;14.332;2022-12-17T14:29:44;99071.94;;;-1.45;74.76
75717;BME280;64333;50.138;14.332;2022-12-17T14:32:34;99075.00;;;-1.64;76.68
75717;BME280;64333;50.138;14.332;2022-12-17T14:35:00;99082.34;;;-1.79;76.76
75717;BME280;64333;50.138;14.332;2022-12-17T14:37:27;99086.28;;;-1.95;77.57
75717;BME280;64333;50.138;14.332;2022-12-17T14:39:59;99092.81;;;-2.07;79.31
75717;BME280;64333;50.138;14.332;2022-12-17T14:42:26;99086.75;;;-2.14;79.43
75717;BME280;64333;50.138;14.332;2022-12-17T14:47:31;99100.72;;;-2.34;79.36
75717;BME280;64333;50.138;14.332;2022-12-17T14:50:05;99104.69;;;-2.46;79.31
75717;BME280;64333;50.138;14.332;2022-12-17T14:52:39;99111.97;;;-2.61;80.49
75717;BME280;64333;50.138;14.332;2022-12-17T14:57:49;99119.88;;;-2.83;81.85
75717;BME280;64333;50.138;14.332;2022-12-17T15:00:15;99109.53;;;-2.95;82.72
75717;BME280;64333;50.138;14.332;2022-12-17T15:02:42;99116.06;;;-3.03;83.15
75717;BME280;64333;50.138;14.332;2022-12-17T15:05:13;99114.09;;;-3.16;83.03
75717;BME280;64333;50.138;14.332;2022-12-17T15:07:39;99119.00;;;-3.22;84.01
75717;BME280;64333;50.138;14.332;2022-12-17T15:10:09;99117.72;;;-3.41;84.21
75717;BME280;64333;50.138;14.332;2022-12-17T15:12:36;99139.63;;;-3.40;84.18
75717;BME280;64333;50.138;14.332;2022-12-17T15:15:02;99138.69;;;-3.43;84.42
75717;BME280;64333;50.138;14.332;2022-12-17T15:17:27;99139.34;;;-3.52;85.28
75717;BME280;64333;50.138;14.332;2022-12-17T15:19:53;99144.25;;;-3.56;84.99
75717;BME280;64333;50.138;14.332;2022-12-17T15:22:18;99145.16;;;-3.54;85.89
75717;BME280;64333;50.138;14.332;2022-12-17T15:24:44;99135.56;;;-3.67;86.13
75717;BME280;64333;50.138;14.332;2022-12-17T15:27:14;99160.47;;;-3.48;86.50
75717;BME280;64333;50.138;14.332;2022-12-17T15:29:41;99159.81;;;-3.40;86.66
75717;BME280;64333;50.138;14.332;2022-12-17T15:32:18;99162.06;;;-3.18;85.53
75717;BME280;64333;50.138;14.332;2022-12-17T15:34:44;99167.50;;;-3.01;85.21
75717;BME280;64333;50.138;14.332;2022-12-17T15:37:09;99158.69;;;-2.81;83.93
75717;BME280;64333;50.138;14.332;2022-12-17T15:39:34;99162.44;;;-2.64;83.88
75717;BME280;64333;50.138;14.332;2022-12-17T15:42:00;99165.41;;;-2.43;82.30
75717;BME280;64333;50.138;14.332;2022-12-17T15:44:43;99169.13;;;-2.28;82.20
75717;BME280;64333;50.138;14.332;2022-12-17T15:47:09;99151.38;;;-2.29;81.75